createdAt,value
2022-12-07T00:01:25.595Z,62.30
2022-12-07T00:03:54.884Z,70.30
2022-12-07T00:06:22.081Z,68.70
2022-12-07T00:08:49.203Z,78.00
2022-12-07T00:11:21.548Z,87.10
2022-12-07T00:13:52.978Z,83.10
2022-12-07T00:16:21.717Z,81.90
2022-12-07T00:18:48.687Z,71.90
2022-12-07T00:21:25.135Z,69.70
2022-12-07T00:23:54.087Z,73.10
2022-12-07T00:26:24.028Z,73.70
2022-12-07T00:28:53.104Z,73.80
2022-12-07T00:31:22.895Z,77.30
2022-12-07T00:33:51.184Z,79.20
2022-12-07T00:36:26.324Z,76.40
2022-12-07T00:38:54.722Z,77.80
2022-12-07T00:41:24.046Z,74.30
2022-12-07T00:43:51.918Z,72.50
2022-12-07T00:46:20.189Z,72.60
2022-12-07T00:48:48.372Z,73.10
2022-12-07T00:51:17.603Z,78.10
2022-12-07T00:53:44.835Z,81.40
2022-12-07T00:56:17.823Z,82.90
2022-12-07T00:58:44.878Z,91.50
2022-12-07T01:01:12.523Z,64.00
2022-12-07T01:03:39.847Z,61.80
2022-12-07T01:06:07.138Z,57.00
2022-12-07T01:08:34.927Z,53.40
2022-12-07T01:11:05.210Z,51.70
2022-12-07T01:13:33.384Z,52.20
2022-12-07T01:16:02.617Z,49.90
2022-12-07T01:18:33.624Z,50.90
2022-12-07T01:21:02.630Z,48.70
2022-12-07T01:23:30.447Z,39.00
2022-12-07T01:25:59.177Z,35.90
2022-12-07T01:28:27.021Z,32.40
2022-12-07T01:31:08.776Z,30.10
2022-12-07T01:33:37.618Z,24.90
2022-12-07T01:36:14.079Z,22.20
2022-12-07T01:38:41.441Z,19.10
2022-12-07T01:41:09.005Z,10.40
2022-12-07T01:43:36.179Z,1.00
2022-12-07T01:46:04.908Z,1.00
2022-12-07T01:48:41.606Z,1.00
2022-12-07T01:51:13.017Z,1.00
2022-12-07T01:53:43.921Z,1.00
2022-12-07T01:56:16.728Z,1.00
2022-12-07T01:58:44.299Z,1.00
2022-12-07T02:01:11.357Z,1.00
2022-12-07T02:03:41.868Z,1.00
2022-12-07T02:06:10.578Z,1.00
2022-12-07T02:08:37.497Z,1.00
2022-12-07T02:11:06.370Z,1.00
2022-12-07T02:13:36.098Z,1.00
2022-12-07T02:16:08.616Z,1.00
2022-12-07T02:18:58.596Z,1.00
2022-12-07T02:21:44.282Z,1.00
2022-12-07T02:24:48.147Z,1.00
2022-12-07T02:27:53.948Z,1.00
2022-12-07T02:30:22.737Z,1.00
2022-12-07T02:32:55.435Z,1.00
2022-12-07T02:35:34.384Z,1.00
2022-12-07T02:38:09.745Z,1.00
2022-12-07T02:41:05.661Z,1.00
2022-12-07T02:43:37.922Z,1.00
2022-12-07T02:46:09.632Z,1.00
2022-12-07T02:48:39.485Z,1.00
2022-12-07T02:51:06.499Z,1.00
2022-12-07T02:53:44.894Z,1.00
2022-12-07T02:56:42.410Z,1.00
2022-12-07T02:59:35.481Z,1.00
2022-12-07T03:02:08.271Z,1.00
2022-12-07T03:04:56.043Z,1.00
2022-12-07T03:07:32.518Z,1.00
2022-12-07T03:10:22.359Z,1.00
2022-12-07T03:13:08.957Z,1.00
2022-12-07T03:15:41.870Z,1.00
2022-12-07T03:18:11.328Z,1.00
2022-12-07T03:20:40.749Z,1.00
2022-12-07T03:23:13.508Z,1.00
2022-12-07T03:25:44.939Z,1.00
2022-12-07T03:28:14.841Z,1.00
2022-12-07T03:31:01.233Z,1.00
2022-12-07T03:33:41.200Z,1.00
2022-12-07T03:36:15.810Z,1.00
2022-12-07T03:38:50.092Z,1.00
2022-12-07T03:41:26.012Z,1.00
2022-12-07T03:43:55.280Z,1.00
2022-12-07T03:46:34.809Z,1.00
2022-12-07T03:49:31.633Z,1.00
2022-12-07T03:51:58.425Z,1.00
2022-12-07T03:54:34.579Z,1.00
2022-12-07T03:57:03.732Z,1.00
2022-12-07T03:59:31.331Z,1.00
2022-12-07T04:02:03.500Z,12.90
2022-12-07T04:04:30.642Z,31.00
2022-12-07T04:06:57.630Z,22.90
2022-12-07T04:09:24.665Z,16.50
2022-12-07T04:11:51.641Z,16.10
2022-12-07T04:14:21.568Z,11.10
2022-12-07T04:16:54.592Z,22.90
2022-12-07T04:19:24.208Z,8.00
2022-12-07T04:21:51.106Z,8.90
2022-12-07T04:24:18.349Z,8.00
2022-12-07T04:26:46.050Z,6.80
2022-12-07T04:29:13.622Z,7.60
2022-12-07T04:31:40.778Z,11.80
2022-12-07T04:34:08.670Z,3.90
2022-12-07T04:36:36.060Z,1.40
2022-12-07T04:39:03.885Z,1.00
2022-12-07T04:41:30.864Z,1.00
2022-12-07T04:44:01.380Z,1.00
2022-12-07T04:46:30.793Z,1.00
2022-12-07T04:48:58.458Z,1.00
2022-12-07T04:51:28.403Z,1.00
2022-12-07T04:53:56.339Z,1.00
2022-12-07T04:56:24.137Z,1.00
2022-12-07T04:58:52.377Z,1.00
2022-12-07T05:01:20.316Z,1.00
2022-12-07T05:03:47.197Z,1.00
2022-12-07T05:06:15.502Z,1.00
2022-12-07T05:08:43.947Z,1.00
2022-12-07T05:11:31.236Z,1.00
2022-12-07T05:13:58.421Z,1.00
2022-12-07T05:16:25.471Z,1.00
2022-12-07T05:18:54.004Z,1.00
2022-12-07T05:21:21.051Z,1.00
2022-12-07T05:23:47.908Z,1.00
2022-12-07T05:26:14.763Z,1.00
2022-12-07T05:28:41.734Z,1.00
2022-12-07T05:31:08.674Z,1.00
2022-12-07T05:33:35.654Z,1.00
2022-12-07T05:36:06.557Z,1.00
2022-12-07T05:38:34.144Z,1.00
2022-12-07T05:41:06.136Z,1.00
2022-12-07T05:43:33.778Z,1.00
2022-12-07T05:46:01.069Z,1.00
2022-12-07T05:48:28.047Z,1.00
2022-12-07T05:50:54.985Z,1.00
2022-12-07T05:53:23.399Z,1.00
2022-12-07T05:55:50.506Z,1.00
2022-12-07T05:58:35.779Z,1.00
2022-12-07T06:01:02.634Z,1.00
2022-12-07T06:03:29.664Z,1.00
2022-12-07T06:05:56.723Z,1.00
2022-12-07T06:08:23.691Z,1.00
2022-12-07T06:11:13.234Z,1.00
2022-12-07T06:13:45.338Z,1.00
2022-12-07T06:16:14.134Z,1.00
2022-12-07T06:18:41.155Z,1.00
2022-12-07T06:21:08.049Z,1.00
2022-12-07T06:23:34.891Z,1.00
2022-12-07T06:26:01.776Z,1.00
2022-12-07T06:28:28.614Z,1.00
2022-12-07T06:31:02.741Z,1.00
2022-12-07T06:33:30.219Z,1.00
2022-12-07T06:35:57.105Z,1.00
2022-12-07T06:38:24.050Z,1.00
2022-12-07T06:40:50.889Z,1.00
2022-12-07T06:43:17.769Z,11.70
2022-12-07T06:45:44.796Z,19.60
2022-12-07T06:48:11.715Z,31.70
2022-12-07T06:50:38.881Z,44.00
2022-12-07T06:53:05.792Z,55.80
2022-12-07T06:55:32.777Z,64.40
2022-12-07T06:57:59.691Z,69.00
2022-12-07T07:00:26.667Z,85.40
2022-12-07T07:02:53.584Z,94.30
2022-12-07T07:05:22.974Z,99.90
2022-12-07T07:08:20.796Z,99.90
2022-12-07T07:10:40.267Z,99.90
2022-12-07T07:13:07.632Z,99.90
2022-12-07T07:15:35.554Z,99.90
2022-12-07T07:18:07.694Z,99.90
2022-12-07T07:20:35.301Z,99.90
2022-12-07T07:23:02.195Z,99.90
2022-12-07T07:25:29.173Z,99.90
2022-12-07T07:27:56.053Z,99.90
2022-12-07T07:30:22.932Z,99.90
2022-12-07T07:32:49.823Z,99.90
2022-12-07T07:35:16.890Z,99.90
2022-12-07T07:37:43.736Z,99.90
2022-12-07T07:40:11.450Z,99.90
2022-12-07T07:42:38.337Z,99.90
2022-12-07T07:45:05.677Z,99.90
2022-12-07T07:47:32.776Z,99.90
2022-12-07T07:49:59.883Z,99.90
2022-12-07T07:52:27.196Z,99.90
2022-12-07T07:54:54.059Z,99.90
2022-12-07T07:57:20.974Z,99.90
2022-12-07T07:59:47.852Z,99.90
2022-12-07T08:02:17.294Z,99.90
2022-12-07T08:04:44.762Z,99.90
2022-12-07T08:07:12.738Z,99.90
2022-12-07T08:09:39.692Z,99.90
2022-12-07T08:12:07.207Z,99.90
2022-12-07T08:14:35.111Z,99.90
2022-12-07T08:17:02.221Z,99.90
2022-12-07T08:19:29.168Z,99.90
2022-12-07T08:21:57.097Z,99.90
2022-12-07T08:24:24.553Z,99.90
2022-12-07T08:26:51.687Z,99.90
2022-12-07T08:29:19.236Z,99.90
2022-12-07T08:31:46.441Z,99.90
2022-12-07T08:34:13.872Z,99.90
2022-12-07T08:36:40.799Z,99.90
2022-12-07T08:39:30.860Z,99.90
2022-12-07T08:41:54.640Z,99.90
2022-12-07T08:44:22.236Z,99.90
2022-12-07T08:46:59.377Z,99.90
2022-12-07T08:49:49.554Z,99.90
2022-12-07T08:52:17.124Z,99.90
2022-12-07T08:54:44.230Z,99.90
2022-12-07T08:57:12.301Z,99.90
2022-12-07T08:59:39.494Z,99.90
2022-12-07T09:02:07.860Z,99.90
2022-12-07T09:04:34.890Z,99.90
2022-12-07T09:07:01.958Z,99.90
2022-12-07T09:09:28.966Z,99.90
2022-12-07T09:11:55.993Z,99.90
2022-12-07T09:14:23.765Z,99.90
2022-12-07T09:16:51.246Z,99.90
2022-12-07T09:19:18.279Z,99.90
2022-12-07T09:21:45.377Z,99.90
2022-12-07T09:24:13.943Z,99.90
2022-12-07T09:26:41.562Z,99.90
2022-12-07T09:29:08.671Z,99.90
2022-12-07T09:31:38.627Z,99.90
2022-12-07T09:34:07.080Z,99.90
2022-12-07T09:36:34.644Z,99.90
2022-12-07T09:39:01.643Z,99.90
2022-12-07T09:41:30.584Z,98.90
2022-12-07T09:44:24.453Z,93.30
2022-12-07T09:46:53.976Z,83.70
2022-12-07T09:49:26.562Z,63.80
2022-12-07T09:52:05.565Z,53.10
2022-12-07T09:54:35.277Z,41.90
2022-12-07T09:57:02.131Z,33.90
2022-12-07T09:59:33.733Z,29.20
2022-12-07T10:02:25.726Z,27.90
2022-12-07T10:04:52.775Z,20.80
2022-12-07T10:07:20.217Z,17.50
2022-12-07T10:09:47.155Z,12.60
2022-12-07T10:12:14.508Z,4.20
2022-12-07T10:15:07.271Z,2.70
2022-12-07T10:17:37.923Z,1.00
2022-12-07T10:20:13.394Z,1.00
2022-12-07T10:22:57.791Z,1.00
2022-12-07T10:25:33.616Z,1.00
2022-12-07T10:28:03.386Z,1.00
2022-12-07T10:30:32.680Z,1.00
2022-12-07T10:33:00.104Z,1.00
2022-12-07T10:35:31.795Z,1.00
2022-12-07T10:38:00.767Z,11.10
2022-12-07T10:40:29.416Z,27.90
2022-12-07T10:43:22.299Z,51.70
2022-12-07T10:46:03.676Z,82.30
2022-12-07T10:49:00.300Z,95.30
2022-12-07T10:51:32.304Z,99.90
2022-12-07T10:54:12.264Z,99.90
2022-12-07T10:56:49.696Z,99.90
2022-12-07T11:00:00.703Z,99.90
2022-12-07T11:02:46.137Z,99.90
2022-12-07T11:05:28.148Z,99.90
2022-12-07T11:07:57.105Z,99.90
2022-12-07T11:10:48.018Z,99.90
2022-12-07T11:13:33.066Z,83.30
2022-12-07T11:16:22.158Z,39.00
2022-12-07T11:19:00.696Z,1.00
2022-12-07T11:21:46.087Z,1.00
2022-12-07T11:24:24.960Z,1.00
2022-12-07T11:27:31.609Z,1.00
2022-12-07T11:30:07.383Z,1.00
2022-12-07T11:32:53.109Z,1.00
2022-12-07T11:35:34.267Z,1.00
2022-12-07T11:38:09.622Z,1.00
2022-12-07T11:40:38.167Z,1.00
2022-12-07T11:43:27.184Z,1.00
2022-12-07T11:46:13.531Z,1.00
2022-12-07T11:48:46.446Z,1.00
2022-12-07T11:51:13.554Z,1.00
2022-12-07T11:53:43.489Z,1.00
2022-12-07T11:56:17.059Z,1.00
2022-12-07T11:58:56.595Z,1.00
2022-12-07T12:01:34.453Z,1.00
2022-12-07T12:04:15.663Z,1.00
2022-12-07T12:06:45.485Z,1.00
2022-12-07T12:15:57.294Z,1.00
2022-12-07T12:18:34.107Z,1.00
2022-12-07T12:21:09.767Z,1.00
2022-12-07T12:23:52.159Z,1.00
2022-12-07T12:26:24.416Z,1.00
2022-12-07T12:29:06.648Z,1.00
2022-12-07T12:31:41.043Z,1.00
2022-12-07T12:34:58.079Z,1.00
2022-12-07T12:37:34.139Z,1.00
2022-12-07T12:40:16.180Z,1.00
2022-12-07T12:42:57.035Z,1.00
2022-12-07T12:45:34.036Z,1.00
2022-12-07T12:48:05.146Z,1.00
2022-12-07T12:50:39.310Z,1.00
2022-12-07T12:53:27.213Z,1.00
2022-12-07T12:56:04.661Z,1.00
2022-12-07T12:58:38.377Z,1.00
2022-12-07T13:01:36.462Z,1.00
2022-12-07T13:04:13.959Z,1.00
2022-12-07T13:06:42.765Z,1.00
2022-12-07T13:09:22.742Z,1.00
2022-12-07T13:11:51.157Z,1.00
2022-12-07T13:14:57.002Z,1.00
2022-12-07T13:17:33.129Z,1.00
2022-12-07T13:20:02.458Z,1.00
2022-12-07T13:22:32.472Z,1.00
2022-12-07T13:25:10.807Z,1.00
2022-12-07T13:27:41.029Z,1.00
2022-12-07T13:30:22.727Z,1.00
2022-12-07T13:32:54.938Z,1.00
2022-12-07T13:35:40.916Z,1.00
2022-12-07T13:38:39.478Z,1.00
2022-12-07T13:41:18.132Z,1.00
2022-12-07T13:43:50.859Z,1.00
2022-12-07T13:46:22.264Z,1.00
2022-12-07T13:48:51.103Z,1.00
2022-12-07T13:51:25.059Z,1.00
2022-12-07T13:53:54.766Z,1.00
2022-12-07T13:56:33.257Z,1.00
2022-12-07T13:59:01.349Z,1.00
2022-12-07T14:01:31.405Z,1.00
2022-12-07T14:04:30.052Z,1.00
2022-12-07T14:06:57.378Z,1.00
2022-12-07T14:09:27.018Z,1.00
2022-12-07T14:11:56.380Z,1.00
2022-12-07T14:14:36.588Z,1.00
2022-12-07T14:17:21.190Z,1.00
2022-12-07T14:20:02.690Z,1.00
2022-12-07T14:22:39.460Z,1.00
2022-12-07T14:25:15.280Z,1.00
2022-12-07T14:27:56.808Z,1.00
2022-12-07T14:30:29.280Z,1.00
2022-12-07T14:33:05.165Z,1.00
2022-12-07T14:35:32.992Z,1.00
2022-12-07T14:38:00.087Z,1.00
2022-12-07T14:40:31.379Z,1.00
2022-12-07T14:43:03.846Z,1.00
2022-12-07T14:45:31.610Z,1.00
2022-12-07T14:53:49.945Z,1.00
2022-12-07T14:56:20.282Z,1.00
2022-12-07T14:58:49.276Z,1.00
2022-12-07T15:01:16.184Z,1.00
2022-12-07T15:03:43.227Z,1.00
2022-12-07T15:06:15.956Z,1.00
2022-12-07T15:08:45.171Z,1.00
2022-12-07T15:11:15.479Z,1.00
2022-12-07T15:14:00.945Z,1.00
2022-12-07T15:16:33.446Z,1.00
2022-12-07T15:19:31.578Z,1.00
2022-12-07T15:21:59.358Z,1.00
2022-12-07T15:24:27.269Z,1.00
2022-12-07T15:26:54.386Z,1.00
2022-12-07T15:29:23.591Z,1.00
2022-12-07T15:31:57.572Z,1.00
2022-12-07T15:34:36.150Z,1.00
2022-12-07T15:37:07.433Z,1.00
2022-12-07T15:39:35.020Z,1.00
2022-12-07T15:42:01.970Z,1.00
2022-12-07T15:44:47.323Z,1.00
2022-12-07T15:47:14.365Z,1.00
2022-12-07T15:49:41.826Z,5.10
2022-12-07T15:52:08.803Z,1.80
2022-12-07T15:54:35.732Z,1.20
2022-12-07T15:57:03.179Z,6.80
2022-12-07T15:59:30.687Z,10.60
2022-12-07T16:01:57.861Z,13.10
2022-12-07T16:04:24.888Z,12.30
2022-12-07T16:06:52.265Z,9.20
2022-12-07T16:09:19.867Z,12.50
2022-12-07T16:11:46.958Z,12.60
2022-12-07T16:14:14.259Z,23.10
2022-12-07T16:16:41.476Z,32.70
2022-12-07T16:19:09.364Z,41.90
2022-12-07T16:21:36.887Z,49.50
2022-12-07T16:24:04.669Z,53.40
2022-12-07T16:26:31.905Z,40.40
2022-12-07T16:28:59.553Z,38.10
2022-12-07T16:31:28.151Z,39.40
2022-12-07T16:33:57.233Z,44.60
2022-12-07T16:36:55.060Z,36.30
2022-12-07T16:39:13.833Z,30.20
2022-12-07T16:41:40.945Z,43.10
2022-12-07T16:44:11.346Z,37.00
2022-12-07T16:46:38.429Z,36.00
2022-12-07T16:49:05.888Z,44.00
2022-12-07T16:51:35.669Z,50.90
2022-12-07T16:54:02.603Z,35.60
2022-12-07T16:56:30.245Z,42.70
2022-12-07T16:58:59.969Z,95.30
2022-12-07T17:01:29.314Z,99.90
2022-12-07T17:03:58.073Z,99.90
2022-12-07T17:06:28.599Z,99.90
2022-12-07T17:08:56.927Z,99.90
2022-12-07T17:11:27.390Z,99.90
2022-12-07T17:14:12.916Z,99.90
2022-12-07T17:16:40.358Z,99.90
2022-12-07T17:19:09.143Z,99.90
2022-12-07T17:21:36.980Z,99.90
2022-12-07T17:24:06.711Z,99.90
2022-12-07T17:26:35.989Z,99.90
2022-12-07T17:29:04.770Z,99.90
2022-12-07T17:31:33.465Z,99.90
2022-12-07T17:34:00.812Z,99.90
2022-12-07T17:36:30.888Z,99.90
2022-12-07T17:38:58.525Z,99.90
2022-12-07T17:41:46.428Z,99.90
2022-12-07T17:44:15.918Z,99.90
2022-12-07T17:46:43.171Z,99.90
2022-12-07T17:49:10.801Z,97.60
2022-12-07T17:51:56.645Z,91.80
2022-12-07T17:54:23.726Z,67.30
2022-12-07T17:56:50.984Z,59.60
2022-12-07T17:59:18.522Z,56.50
2022-12-07T18:01:46.173Z,58.20
2022-12-07T18:04:13.922Z,54.10
2022-12-07T18:06:41.123Z,58.80
2022-12-07T18:09:08.774Z,63.10
2022-12-07T18:11:36.084Z,70.30
2022-12-07T18:14:04.111Z,89.30
2022-12-07T18:16:34.586Z,99.90
2022-12-07T18:19:06.505Z,99.90
2022-12-07T18:21:33.861Z,99.90
2022-12-07T18:24:05.252Z,99.90
2022-12-07T18:26:37.513Z,99.90
2022-12-07T18:29:06.183Z,99.90
2022-12-07T18:31:33.968Z,99.90
2022-12-07T18:34:04.293Z,99.90
2022-12-07T18:36:31.540Z,99.90
2022-12-07T18:38:58.459Z,99.90
2022-12-07T18:41:25.571Z,99.90
2022-12-07T18:43:52.426Z,99.90
2022-12-07T18:46:21.456Z,99.90
2022-12-07T18:48:50.601Z,99.90
2022-12-07T18:51:19.512Z,99.90
2022-12-07T18:53:47.328Z,99.90
2022-12-07T18:56:15.430Z,99.90
2022-12-07T18:59:03.063Z,99.90
2022-12-07T19:01:31.181Z,99.90
2022-12-07T19:03:59.647Z,99.90
2022-12-07T19:06:27.496Z,99.90
2022-12-07T19:08:55.736Z,99.90
2022-12-07T19:11:52.437Z,99.90
2022-12-07T19:14:27.731Z,99.90
2022-12-07T19:17:04.682Z,99.90
2022-12-07T19:19:36.843Z,99.90
2022-12-07T19:22:04.798Z,99.90
2022-12-07T19:24:31.855Z,99.90
2022-12-07T19:26:59.158Z,99.90
2022-12-07T19:29:28.155Z,99.90
2022-12-07T19:31:55.197Z,99.90
2022-12-07T19:34:22.208Z,99.90
2022-12-07T19:36:49.241Z,99.90
2022-12-07T19:39:16.475Z,99.90
2022-12-07T19:41:44.630Z,99.90
2022-12-07T19:44:20.307Z,99.90
2022-12-07T19:46:52.488Z,99.90
2022-12-07T19:49:20.967Z,99.90
2022-12-07T19:51:50.421Z,99.90
2022-12-07T19:54:20.999Z,99.90
2022-12-07T19:56:49.211Z,99.90
2022-12-07T19:59:17.530Z,99.90
2022-12-07T20:01:45.124Z,99.90
2022-12-07T20:04:21.850Z,96.40
2022-12-07T20:06:54.621Z,62.50
2022-12-07T20:09:22.166Z,51.40
2022-12-07T20:12:08.190Z,29.70
2022-12-07T20:14:35.155Z,24.20
2022-12-07T20:17:02.454Z,15.30
2022-12-07T20:19:29.461Z,13.70
2022-12-07T20:21:56.775Z,10.10
2022-12-07T20:24:26.255Z,1.20
2022-12-07T20:26:54.794Z,1.00
2022-12-07T20:29:24.496Z,1.00
2022-12-07T20:31:52.637Z,1.00
2022-12-07T20:34:19.666Z,1.00
2022-12-07T20:36:46.858Z,1.00
2022-12-07T20:39:14.078Z,1.00
2022-12-07T20:41:59.367Z,1.00
2022-12-07T20:44:26.954Z,1.00
2022-12-07T20:46:53.868Z,1.00
2022-12-07T20:49:20.971Z,1.00
2022-12-07T20:51:48.122Z,1.00
2022-12-07T20:54:15.268Z,1.00
2022-12-07T20:56:42.291Z,1.00
2022-12-07T20:59:13.205Z,1.00
2022-12-07T21:01:40.406Z,1.00
2022-12-07T21:04:07.580Z,1.00
2022-12-07T21:06:34.582Z,1.00
2022-12-07T21:09:01.555Z,1.00
2022-12-07T21:11:31.211Z,1.00
2022-12-07T21:13:58.486Z,1.00
2022-12-07T21:16:29.644Z,1.00
2022-12-07T21:19:00.219Z,1.00
2022-12-07T21:21:27.160Z,1.00
2022-12-07T21:24:01.543Z,1.00
2022-12-07T21:26:30.032Z,1.00
2022-12-07T21:28:57.494Z,1.00
2022-12-07T21:31:25.022Z,1.00
2022-12-07T21:33:52.272Z,1.00
2022-12-07T21:36:24.542Z,1.00
2022-12-07T21:38:51.677Z,1.00
2022-12-07T21:41:30.023Z,1.00
2022-12-07T21:43:57.791Z,1.00
2022-12-07T21:46:32.983Z,1.00
2022-12-07T21:49:02.538Z,1.00
2022-12-07T21:51:30.727Z,1.00
2022-12-07T21:53:59.723Z,1.00
2022-12-07T21:56:28.914Z,1.00
2022-12-07T21:59:00.957Z,1.00
2022-12-07T22:01:30.854Z,1.00
2022-12-07T22:03:57.787Z,1.00
2022-12-07T22:06:26.095Z,1.00
2022-12-07T22:08:54.319Z,1.00
2022-12-07T22:11:21.288Z,1.00
2022-12-07T22:14:10.527Z,1.00
2022-12-07T22:16:38.941Z,1.00
2022-12-07T22:19:07.222Z,1.00
2022-12-07T22:21:34.702Z,1.00
2022-12-07T22:24:02.115Z,1.00
2022-12-07T22:26:29.050Z,1.00
2022-12-07T22:28:55.922Z,1.00
2022-12-07T22:31:23.397Z,1.00
2022-12-07T22:33:51.468Z,1.00
2022-12-07T22:36:19.217Z,1.00
2022-12-07T22:38:46.696Z,1.00
2022-12-07T22:41:28.987Z,1.00
2022-12-07T22:43:56.776Z,1.00
2022-12-07T22:46:24.640Z,1.00
2022-12-07T22:48:52.458Z,99.90
2022-12-07T22:51:33.667Z,1.00
2022-12-07T22:54:02.683Z,1.00
2022-12-07T22:56:32.724Z,1.00
2022-12-07T22:59:00.865Z,1.00
2022-12-07T23:01:28.013Z,1.00
2022-12-07T23:03:55.058Z,1.00
2022-12-07T23:06:31.518Z,1.00
2022-12-07T23:09:00.741Z,1.00
2022-12-07T23:11:48.503Z,1.00
2022-12-07T23:14:18.437Z,1.00
2022-12-07T23:16:45.448Z,1.00
2022-12-07T23:19:12.633Z,1.00
2022-12-07T23:21:40.544Z,1.00
2022-12-07T23:24:07.927Z,1.00
2022-12-07T23:26:34.812Z,1.00
2022-12-07T23:29:01.653Z,1.00
2022-12-07T23:31:28.645Z,1.00
2022-12-07T23:33:55.626Z,1.00
2022-12-07T23:36:25.662Z,1.00
2022-12-07T23:38:54.147Z,1.00
2022-12-07T23:41:27.020Z,1.00
2022-12-07T23:43:55.327Z,1.00
2022-12-07T23:46:26.180Z,1.00
2022-12-07T23:48:55.418Z,1.00
2022-12-07T23:51:23.333Z,1.00
2022-12-07T23:53:52.056Z,1.00
2022-12-07T23:56:24.911Z,1.00
2022-12-07T23:58:53.056Z,1.00
